Time;durP1;ratioP1;P1;durP2;ratioP2;P2;SDS_P1;SDS_P2;PMS_P1;PMS_P2;Temp;Humidity;BMP_temperature;BMP_pressure;BME280_temperature;BME280_humidity;BME280_pressure;Samples;Min_cycle;Max_cycle;Signal;HPM_P1;HPM_P2
2022/07/29 00:02:00;;;;;;;1.55;0.55;;;22.70;59.50;;;;;;5073517;28;20045;-63
2022/07/29 00:04:25;;;;;;;1.83;0.60;;;22.70;59.50;;;;;;5072836;28;20165;-63
2022/07/29 00:06:51;;;;;;;1.75;0.60;;;22.70;59.50;;;;;;5073335;28;20052;-63
2022/07/29 00:09:16;;;;;;;1.55;0.55;;;22.70;59.50;;;;;;5073393;28;20075;-63
2022/07/29 00:11:42;;;;;;;1.00;0.50;;;22.70;59.50;;;;;;5070808;28;20052;-63
2022/07/29 00:14:08;;;;;;;1.90;0.80;;;22.70;59.50;;;;;;5073507;28;20044;-63
2022/07/29 00:16:34;;;;;;;2.85;0.52;;;22.70;59.50;;;;;;5073302;28;20097;-63
2022/07/29 00:18:59;;;;;;;1.33;0.45;;;22.70;59.50;;;;;;5072711;28;20040;-63
2022/07/29 00:21:25;;;;;;;1.52;0.50;;;22.70;59.40;;;;;;5071925;28;20052;-63
2022/07/29 00:23:51;;;;;;;2.33;0.70;;;22.70;59.50;;;;;;5071733;28;20185;-63
2022/07/29 00:26:16;;;;;;;1.30;0.40;;;22.70;59.50;;;;;;5072524;28;20135;-63
2022/07/29 00:28:42;;;;;;;1.55;0.68;;;22.70;59.50;;;;;;5073440;28;20052;-63
2022/07/29 00:31:07;;;;;;;1.65;0.70;;;22.70;59.50;;;;;;5073145;28;20044;-62
2022/07/29 00:33:33;;;;;;;1.52;0.50;;;22.70;59.50;;;;;;5072434;28;20082;-63
2022/07/29 00:35:58;;;;;;;3.30;0.73;;;22.70;59.50;;;;;;5073014;28;20055;-63
2022/07/29 00:38:24;;;;;;;1.58;0.50;;;22.70;59.50;;;;;;5072692;28;20072;-63
2022/07/29 00:40:50;;;;;;;2.20;0.60;;;22.70;59.50;;;;;;5071172;28;20074;-63
2022/07/29 00:43:16;;;;;;;2.13;0.50;;;22.70;59.50;;;;;;5073349;28;20106;-63
2022/07/29 00:45:42;;;;;;;1.25;0.50;;;22.60;59.50;;;;;;5071738;28;20055;-63
2022/07/29 00:48:08;;;;;;;2.30;0.70;;;22.60;59.50;;;;;;5072254;28;20032;-63
2022/07/29 00:50:34;;;;;;;2.03;0.70;;;22.60;59.50;;;;;;5072968;28;20040;-63
2022/07/29 00:53:00;;;;;;;1.13;0.50;;;22.60;59.50;;;;;;5071262;28;20373;-63
2022/07/29 00:55:26;;;;;;;2.28;0.52;;;22.60;59.40;;;;;;5072244;28;20098;-63
2022/07/29 00:57:51;;;;;;;1.80;0.50;;;22.60;59.50;;;;;;5054500;28;20036;-63
2022/07/29 01:00:20;;;;;;;1.52;0.50;;;22.60;59.50;;;;;;5071056;28;20044;-63
2022/07/29 01:02:48;;;;;;;1.27;0.50;;;22.60;59.40;;;;;;5072332;28;20127;-63
2022/07/29 01:05:14;;;;;;;1.50;0.63;;;22.60;59.50;;;;;;5072608;28;20048;-62
2022/07/29 01:07:39;;;;;;;0.63;0.40;;;22.60;59.40;;;;;;5072145;28;20033;-62
2022/07/29 01:10:06;;;;;;;2.00;0.70;;;22.60;59.40;;;;;;5071021;28;20467;-63
2022/07/29 01:12:33;;;;;;;1.88;0.60;;;22.60;59.50;;;;;;5072971;28;20503;-63
2022/07/29 01:14:59;;;;;;;1.50;0.55;;;22.60;59.50;;;;;;5071525;28;20048;-63
2022/07/29 01:17:54;;;;;;;1.42;0.50;;;22.60;59.40;;;;;;5072705;28;20044;-63
2022/07/29 01:20:43;;;;;;;1.05;0.50;;;22.60;59.40;;;;;;5071319;28;20055;-63
2022/07/29 01:23:26;;;;;;;1.50;0.50;;;22.60;59.40;;;;;;5071674;28;20120;-64
2022/07/29 01:25:51;;;;;;;2.42;0.60;;;22.50;59.40;;;;;;5056134;28;20492;-63
2022/07/29 01:28:32;;;;;;;2.30;0.50;;;22.50;59.40;;;;;;5071951;28;20047;-62
2022/07/29 01:30:58;;;;;;;1.50;0.60;;;22.50;59.40;;;;;;5071002;28;20093;-63
2022/07/29 01:36:13;;;;;;;2.22;0.60;;;22.50;59.40;;;;;;5056443;28;20052;-63
2022/07/29 01:38:39;;;;;;;1.77;0.60;;;22.50;59.40;;;;;;5071224;28;20049;-62
2022/07/29 01:41:06;;;;;;;1.73;0.70;;;22.50;59.40;;;;;;5054465;28;20084;-63
2022/07/29 01:43:43;;;;;;;1.15;0.60;;;22.50;59.40;;;;;;5054080;28;20044;-63
2022/07/29 01:46:11;;;;;;;1.45;0.70;;;22.50;59.40;;;;;;5070946;28;20427;-62
2022/07/29 01:48:39;;;;;;;1.33;0.60;;;22.50;59.40;;;;;;5054671;28;20048;-63
2022/07/29 01:51:06;;;;;;;2.38;0.52;;;22.50;59.40;;;;;;5070151;28;20523;-63
2022/07/29 01:53:35;;;;;;;1.05;0.60;;;22.50;59.50;;;;;;5054197;28;20519;-63
2022/07/29 01:56:01;;;;;;;1.70;0.50;;;22.50;59.40;;;;;;5054249;28;20094;-62
2022/07/29 01:58:27;;;;;;;2.17;0.57;;;22.50;59.40;;;;;;5070266;28;20423;-63
2022/07/29 02:00:53;;;;;;;1.50;0.60;;;22.50;59.40;;;;;;5053253;28;20041;-62
2022/07/29 02:03:19;;;;;;;1.10;0.52;;;22.50;59.40;;;;;;5070849;28;20398;-62
2022/07/29 02:05:45;;;;;;;1.70;0.63;;;22.50;59.40;;;;;;5069575;28;20091;-63
2022/07/29 02:08:11;;;;;;;1.23;0.55;;;22.50;59.40;;;;;;5081553;28;20044;-62
2022/07/29 02:10:36;;;;;;;1.20;0.73;;;22.50;59.40;;;;;;5090330;28;20403;-63
2022/07/29 02:13:02;;;;;;;2.08;0.85;;;22.50;59.40;;;;;;5073957;28;20485;-63
2022/07/29 02:15:29;;;;;;;2.13;0.70;;;22.50;59.50;;;;;;5090986;28;20123;-63
2022/07/29 02:17:56;;;;;;;1.48;0.60;;;22.40;59.30;;;;;;5089954;28;20608;-63
2022/07/29 02:20:22;;;;;;;1.70;0.60;;;22.50;59.40;;;;;;5090793;28;20100;-63
2022/07/29 02:22:48;;;;;;;1.23;0.57;;;22.40;59.30;;;;;;5090852;28;20072;-62
2022/07/29 02:25:13;;;;;;;1.75;0.50;;;22.40;59.30;;;;;;5090259;28;20117;-62
2022/07/29 02:27:39;;;;;;;1.38;0.60;;;22.40;59.30;;;;;;5090749;28;20063;-62
2022/07/29 02:30:05;;;;;;;1.20;0.50;;;22.40;59.30;;;;;;5090608;28;20044;-63
2022/07/29 02:32:31;;;;;;;1.30;0.60;;;22.40;59.30;;;;;;5073042;28;20528;-62
2022/07/29 02:34:56;;;;;;;1.58;0.70;;;22.40;59.30;;;;;;5092791;28;20075;-62
2022/07/29 02:37:22;;;;;;;1.60;0.52;;;22.40;59.30;;;;;;5095983;28;20403;-62
2022/07/29 02:39:48;;;;;;;1.67;0.60;;;22.40;59.30;;;;;;5093486;28;20496;-63
2022/07/29 02:42:16;;;;;;;1.55;0.60;;;22.40;59.30;;;;;;5061260;28;20040;-62
2022/07/29 02:44:41;;;;;;;1.75;0.47;;;22.40;59.30;;;;;;5094466;28;20119;-62
2022/07/29 02:47:23;;;;;;;1.23;0.70;;;22.40;59.30;;;;;;5094497;28;20115;-62
2022/07/29 02:49:57;;;;;;;1.70;0.57;;;22.40;59.30;;;;;;5094160;28;20044;-63
2022/07/29 02:52:42;;;;;;;1.10;0.60;;;22.40;59.30;;;;;;5094440;28;20040;-62
2022/07/29 02:55:29;;;;;;;1.98;0.70;;;22.40;59.30;;;;;;5094133;28;20376;-62
2022/07/29 02:58:01;;;;;;;1.33;0.63;;;22.40;59.30;;;;;;5093993;28;20491;-63
2022/07/29 03:00:28;;;;;;;1.48;0.70;;;22.40;59.30;;;;;;5093653;28;20089;-63
2022/07/29 03:02:54;;;;;;;1.77;0.98;;;22.40;59.30;;;;;;5076828;28;20496;-62
2022/07/29 03:05:20;;;;;;;0.90;0.60;;;22.40;59.30;;;;;;5077205;28;20111;-63
2022/07/29 03:07:50;;;;;;;2.17;0.60;;;22.40;59.30;;;;;;5094286;28;20549;-62
2022/07/29 03:10:16;;;;;;;1.10;0.65;;;22.40;59.30;;;;;;5094039;28;20040;-62
2022/07/29 03:12:42;;;;;;;1.40;0.70;;;22.40;59.30;;;;;;5095292;28;20048;-63
2022/07/29 03:15:08;;;;;;;1.50;0.85;;;22.40;59.30;;;;;;5092495;28;20044;-62
2022/07/29 03:17:33;;;;;;;1.92;0.60;;;22.40;59.30;;;;;;5093848;28;20476;-63
2022/07/29 03:19:59;;;;;;;1.88;0.73;;;22.30;60.00;;;;;;5093500;28;20051;-63
2022/07/29 03:22:24;;;;;;;1.65;0.52;;;22.30;59.30;;;;;;5092928;28;20036;-63
2022/07/29 03:24:50;;;;;;;0.95;0.50;;;22.30;59.30;;;;;;5093468;28;20044;-63
2022/07/29 03:27:15;;;;;;;0.90;0.50;;;22.30;59.30;;;;;;5094687;28;20056;-63
2022/07/29 03:29:42;;;;;;;1.85;0.70;;;22.30;59.30;;;;;;5093959;28;20044;-63
2022/07/29 03:32:08;;;;;;;1.17;0.50;;;22.30;59.30;;;;;;5094748;28;20120;-63
2022/07/29 03:34:33;;;;;;;1.98;0.68;;;22.30;59.30;;;;;;5094716;28;20051;-62
2022/07/29 03:36:59;;;;;;;1.25;0.63;;;22.30;59.30;;;;;;5093791;28;20471;-62
2022/07/29 03:39:27;;;;;;;1.30;0.52;;;22.30;59.30;;;;;;5094605;28;20035;-63
2022/07/29 03:41:54;;;;;;;0.90;0.70;;;22.30;59.30;;;;;;5094162;28;20454;-62
2022/07/29 03:44:20;;;;;;;1.25;0.60;;;22.30;59.40;;;;;;5093069;28;20039;-62
2022/07/29 03:46:46;;;;;;;1.02;0.60;;;22.30;59.40;;;;;;5076041;28;20100;-62
2022/07/29 03:49:11;;;;;;;1.13;0.52;;;22.30;59.40;;;;;;5075482;28;20447;-63
2022/07/29 03:51:37;;;;;;;0.65;0.50;;;22.30;59.40;;;;;;5094292;28;20044;-62
2022/07/29 03:54:03;;;;;;;1.48;0.60;;;22.30;59.40;;;;;;5075819;28;20052;-62
2022/07/29 03:56:28;;;;;;;1.35;0.60;;;22.30;59.40;;;;;;5075534;28;20490;-62
2022/07/29 03:58:54;;;;;;;1.65;0.60;;;22.30;59.40;;;;;;5093000;28;20040;-63
2022/07/29 04:01:20;;;;;;;2.63;0.70;;;22.30;59.40;;;;;;5060989;28;20052;-62
2022/07/29 04:03:45;;;;;;;1.05;0.52;;;22.30;59.40;;;;;;5067210;28;20064;-62
2022/07/29 04:06:11;;;;;;;0.73;0.60;;;22.20;59.30;;;;;;5073597;28;20556;-62
2022/07/29 04:08:36;;;;;;;2.42;0.80;;;22.30;59.40;;;;;;5073502;28;20052;-63
2022/07/29 04:11:02;;;;;;;1.42;0.70;;;22.20;59.30;;;;;;5072497;28;20047;-62
2022/07/29 04:13:28;;;;;;;1.50;0.70;;;22.20;59.30;;;;;;5073780;28;20434;-62
2022/07/29 04:15:53;;;;;;;0.77;0.50;;;22.20;59.40;;;;;;5073253;28;20131;-63
2022/07/29 04:18:19;;;;;;;0.98;0.65;;;22.20;59.40;;;;;;5072779;28;20389;-62
2022/07/29 04:20:44;;;;;;;0.90;0.57;;;22.20;59.40;;;;;;5073238;28;20037;-62
2022/07/29 04:23:10;;;;;;;1.15;0.60;;;22.20;59.30;;;;;;5073641;28;20388;-62
2022/07/29 04:25:39;;;;;;;1.63;0.63;;;22.20;59.30;;;;;;5072563;28;20067;-62
2022/07/29 04:28:05;;;;;;;1.30;0.50;;;22.20;59.40;;;;;;5072820;28;20052;-62
2022/07/29 04:30:31;;;;;;;2.20;0.70;;;22.20;59.40;;;;;;5071996;28;20067;-62
2022/07/29 04:32:57;;;;;;;0.93;0.57;;;22.20;59.40;;;;;;5072131;28;20044;-62
2022/07/29 04:35:22;;;;;;;1.38;0.60;;;22.20;59.40;;;;;;5073133;28;20044;-62
2022/07/29 04:37:48;;;;;;;1.27;0.55;;;22.20;59.40;;;;;;5072991;28;20044;-62
2022/07/29 04:40:14;;;;;;;1.50;0.60;;;22.20;59.40;;;;;;5072309;28;20043;-63
2022/07/29 04:42:39;;;;;;;1.20;0.60;;;22.20;59.40;;;;;;5073203;28;20048;-62
2022/07/29 04:45:05;;;;;;;1.67;0.65;;;22.20;59.40;;;;;;5072917;28;20048;-62
2022/07/29 04:47:31;;;;;;;1.75;0.70;;;22.20;59.40;;;;;;5072318;28;20037;-62
2022/07/29 04:49:57;;;;;;;1.42;0.57;;;22.20;59.40;;;;;;5072908;28;20041;-62
2022/07/29 04:52:22;;;;;;;1.90;0.60;;;22.20;59.40;;;;;;5072136;28;20052;-62
2022/07/29 04:54:48;;;;;;;1.98;0.60;;;22.20;59.40;;;;;;5072638;28;20476;-62
2022/07/29 04:57:14;;;;;;;1.38;0.50;;;22.20;59.50;;;;;;5072615;28;20480;-63
2022/07/29 04:59:39;;;;;;;1.13;0.60;;;22.20;59.40;;;;;;5071880;28;20045;-62
2022/07/29 05:02:05;;;;;;;2.97;0.80;;;22.10;59.40;;;;;;5072406;28;20037;-63
2022/07/29 05:04:30;;;;;;;1.88;0.60;;;22.20;59.40;;;;;;5073017;28;20109;-63
2022/07/29 05:06:56;;;;;;;1.95;0.65;;;22.20;59.50;;;;;;5071970;28;20041;-62
2022/07/29 05:09:21;;;;;;;1.33;0.50;;;22.10;59.40;;;;;;5072968;28;20045;-62
2022/07/29 05:11:47;;;;;;;1.52;0.70;;;22.20;59.50;;;;;;5072535;28;20051;-63
2022/07/29 05:14:13;;;;;;;1.20;0.60;;;22.20;59.50;;;;;;5072100;28;20131;-63
2022/07/29 05:16:39;;;;;;;0.70;0.52;;;22.20;59.50;;;;;;5072715;28;20084;-63
2022/07/29 05:19:05;;;;;;;0.95;0.40;;;22.10;59.50;;;;;;5072286;28;20049;-62
2022/07/29 05:21:31;;;;;;;1.65;0.90;;;22.10;59.40;;;;;;5071740;28;20051;-63
2022/07/29 05:23:56;;;;;;;1.40;0.65;;;22.10;59.50;;;;;;5072225;28;20056;-62
2022/07/29 05:26:22;;;;;;;1.95;0.75;;;22.10;59.50;;;;;;5072538;28;20055;-62
2022/07/29 05:28:47;;;;;;;0.65;0.50;;;22.10;59.50;;;;;;5071478;28;20045;-62
2022/07/29 05:31:14;;;;;;;2.80;0.60;;;22.10;59.50;;;;;;5072439;28;20140;-62
2022/07/29 05:33:40;;;;;;;3.25;0.70;;;22.10;59.50;;;;;;5070865;28;20057;-62
2022/07/29 05:36:06;;;;;;;0.95;0.50;;;22.10;59.60;;;;;;5071204;28;20108;-63
2022/07/29 05:38:32;;;;;;;1.25;0.60;;;22.10;59.60;;;;;;5072316;28;20580;-63
2022/07/29 05:40:59;;;;;;;1.20;0.60;;;22.10;59.60;;;;;;5072085;28;20037;-62
2022/07/29 05:43:24;;;;;;;0.85;0.60;;;22.10;59.60;;;;;;5071953;28;20076;-62
2022/07/29 05:45:50;;;;;;;2.40;0.70;;;22.10;60.20;;;;;;5070850;28;20083;-62
2022/07/29 05:48:15;;;;;;;1.95;0.77;;;22.10;59.50;;;;;;5072504;28;20040;-62
2022/07/29 05:50:41;;;;;;;1.83;0.63;;;22.10;59.50;;;;;;5071568;28;20054;-62
2022/07/29 05:53:07;;;;;;;1.13;0.60;;;22.20;60.20;;;;;;5072190;28;20063;-62
2022/07/29 05:55:32;;;;;;;2.25;0.70;;;22.20;59.70;;;;;;5070511;28;20119;-62
2022/07/29 05:57:58;;;;;;;2.00;0.73;;;22.20;59.80;;;;;;5070907;28;20048;-63
2022/07/29 06:00:23;;;;;;;2.45;0.77;;;22.20;59.80;;;;;;5070787;28;20052;-64
2022/07/29 06:02:49;;;;;;;2.13;0.90;;;22.20;59.80;;;;;;5070977;28;20043;-63
2022/07/29 06:05:15;;;;;;;3.53;0.77;;;22.20;59.90;;;;;;5072252;28;20483;-63
2022/07/29 06:07:40;;;;;;;2.60;0.75;;;22.20;60.00;;;;;;5072307;28;20484;-64
2022/07/29 06:10:06;;;;;;;2.83;0.93;;;22.20;60.00;;;;;;5072965;28;20090;-64
2022/07/29 06:12:32;;;;;;;3.58;0.80;;;22.20;60.20;;;;;;5076167;28;20126;-64
2022/07/29 06:14:57;;;;;;;2.20;0.80;;;22.20;60.30;;;;;;5075556;28;20395;-63
2022/07/29 06:17:23;;;;;;;1.85;0.98;;;22.30;60.40;;;;;;5074862;28;20106;-64
2022/07/29 06:19:48;;;;;;;2.03;0.70;;;22.30;60.40;;;;;;5075724;28;20079;-67
2022/07/29 06:22:17;;;;;;;2.05;0.80;;;22.30;60.40;;;;;;5074551;28;20036;-61
2022/07/29 06:24:43;;;;;;;4.50;1.00;;;22.30;60.30;;;;;;5074833;28;20033;-63
2022/07/29 06:27:12;;;;;;;4.50;0.90;;;22.40;60.30;;;;;;5075516;28;20121;-63
2022/07/29 06:29:38;;;;;;;2.00;0.80;;;22.40;60.50;;;;;;5075699;28;20051;-63
2022/07/29 06:32:04;;;;;;;2.28;0.90;;;22.40;60.50;;;;;;5074580;28;20127;-62
2022/07/29 06:34:29;;;;;;;4.15;0.90;;;22.40;60.60;;;;;;5075341;28;20087;-63
2022/07/29 06:36:55;;;;;;;1.67;0.60;;;22.40;60.60;;;;;;5075329;28;20049;-63
2022/07/29 06:39:21;;;;;;;2.40;0.90;;;22.40;60.60;;;;;;5074737;28;20067;-62
2022/07/29 06:41:48;;;;;;;1.45;0.70;;;22.40;60.60;;;;;;5075381;28;20037;-62
2022/07/29 06:44:14;;;;;;;3.58;0.90;;;22.40;60.70;;;;;;5075596;28;20076;-64
2022/07/29 06:46:39;;;;;;;2.90;0.60;;;22.40;60.70;;;;;;5074355;28;20504;-63
2022/07/29 06:49:05;;;;;;;4.00;1.05;;;22.40;60.80;;;;;;5074855;28;20071;-63
2022/07/29 06:51:30;;;;;;;1.52;0.68;;;22.40;60.80;;;;;;5075134;28;20090;-63
2022/07/29 06:53:57;;;;;;;1.45;0.80;;;22.40;60.70;;;;;;5074394;28;20115;-64
2022/07/29 06:56:22;;;;;;;2.42;0.88;;;22.40;60.80;;;;;;5074971;28;20052;-64
2022/07/29 06:58:48;;;;;;;2.58;0.80;;;22.40;60.80;;;;;;5075101;28;20115;-63
2022/07/29 07:01:14;;;;;;;2.75;0.80;;;22.40;60.80;;;;;;5073687;28;20036;-64
2022/07/29 07:03:39;;;;;;;2.70;0.70;;;22.50;60.80;;;;;;5073021;28;20041;-65
2022/07/29 07:06:05;;;;;;;2.63;0.90;;;22.40;60.80;;;;;;5074026;28;20047;-66
2022/07/29 07:08:30;;;;;;;2.20;0.70;;;22.50;60.80;;;;;;5073476;28;20044;-64
2022/07/29 07:10:56;;;;;;;2.65;0.80;;;22.50;60.70;;;;;;5074449;28;20036;-62
2022/07/29 07:13:22;;;;;;;2.47;1.08;;;22.50;60.70;;;;;;5074048;28;20041;-63
2022/07/29 07:15:48;;;;;;;2.55;0.82;;;22.50;60.60;;;;;;5074432;28;20147;-63
2022/07/29 07:18:14;;;;;;;2.50;0.75;;;22.50;60.60;;;;;;5074509;28;20052;-64
2022/07/29 07:20:40;;;;;;;4.40;0.88;;;22.50;60.60;;;;;;5073457;28;20047;-63
2022/07/29 07:23:05;;;;;;;3.10;0.93;;;22.50;60.60;;;;;;5056605;28;20052;-63
2022/07/29 07:25:31;;;;;;;2.20;0.73;;;22.40;60.50;;;;;;5074501;28;20404;-64
2022/07/29 07:27:57;;;;;;;2.53;0.80;;;22.50;60.60;;;;;;5072158;28;20052;-63
2022/07/29 07:30:22;;;;;;;2.13;0.82;;;22.50;60.80;;;;;;5074561;28;20045;-62
2022/07/29 07:32:48;;;;;;;3.92;1.20;;;22.50;60.90;;;;;;5072793;28;20102;-63
2022/07/29 07:35:13;;;;;;;4.55;1.00;;;22.50;60.90;;;;;;5072835;28;20036;-62
2022/07/29 07:37:42;;;;;;;3.00;0.70;;;22.50;60.90;;;;;;5072809;28;20098;-63
2022/07/29 07:40:11;;;;;;;3.88;1.00;;;22.50;60.90;;;;;;5073671;28;20040;-63
2022/07/29 07:42:38;;;;;;;3.03;0.80;;;22.50;60.90;;;;;;5071703;28;20062;-63
2022/07/29 07:45:04;;;;;;;3.97;0.90;;;22.50;60.90;;;;;;5073401;28;20132;-63
2022/07/29 07:47:30;;;;;;;1.92;0.75;;;22.50;61.00;;;;;;5073754;28;20110;-63
2022/07/29 07:49:55;;;;;;;2.70;0.70;;;22.50;61.00;;;;;;5071739;28;20045;-64
2022/07/29 07:52:21;;;;;;;2.50;0.70;;;22.50;61.00;;;;;;5074046;28;20442;-64
2022/07/29 07:54:47;;;;;;;3.65;0.80;;;22.50;61.00;;;;;;5073739;28;20037;-63
2022/07/29 07:57:13;;;;;;;1.98;0.80;;;22.60;61.10;;;;;;5073249;28;20080;-64
2022/07/29 07:59:38;;;;;;;2.05;0.80;;;22.50;60.90;;;;;;5073690;28;20055;-63
2022/07/29 08:02:04;;;;;;;3.67;0.73;;;22.50;60.90;;;;;;5072958;28;20040;-63
2022/07/29 08:04:30;;;;;;;1.60;0.70;;;22.50;60.90;;;;;;5072791;28;20044;-63
2022/07/29 08:06:56;;;;;;;3.83;0.95;;;22.60;60.90;;;;;;5073122;28;20492;-63
2022/07/29 08:09:22;;;;;;;4.13;0.80;;;22.60;61.00;;;;;;5072729;28;20063;-63
2022/07/29 08:11:47;;;;;;;2.05;0.75;;;22.60;61.00;;;;;;5073323;28;20480;-63
2022/07/29 08:14:13;;;;;;;2.00;0.70;;;22.60;61.00;;;;;;5073546;28;20052;-62
2022/07/29 08:16:40;;;;;;;2.65;0.70;;;22.60;61.00;;;;;;5072185;28;20044;-63
2022/07/29 08:19:06;;;;;;;1.92;0.60;;;22.60;61.00;;;;;;5073201;28;20041;-63
2022/07/29 08:21:31;;;;;;;1.77;0.95;;;22.60;60.90;;;;;;5072982;28;20040;-63
2022/07/29 08:26:42;;;;;;;2.72;0.80;;;22.60;61.00;;;;;;5072886;28;20514;-61
2022/07/29 08:29:07;;;;;;;1.48;0.80;;;22.60;60.90;;;;;;5073246;28;20044;-61
2022/07/29 08:31:33;;;;;;;4.05;1.00;;;22.60;60.80;;;;;;5071681;28;20385;-61
2022/07/29 08:33:59;;;;;;;2.22;0.75;;;22.60;60.80;;;;;;5071195;28;20049;-61
2022/07/29 08:36:25;;;;;;;1.10;0.65;;;22.60;60.80;;;;;;5072754;28;20055;-61
2022/07/29 08:38:51;;;;;;;3.85;0.80;;;22.60;60.80;;;;;;5071846;28;20041;-61
2022/07/29 08:41:20;;;;;;;1.50;0.60;;;22.60;60.80;;;;;;5072866;28;20041;-63
2022/07/29 08:43:49;;;;;;;3.38;0.90;;;22.70;60.80;;;;;;5072270;28;20040;-62
2022/07/29 08:46:16;;;;;;;3.67;0.80;;;22.70;60.70;;;;;;5071966;28;20480;-62
2022/07/29 08:48:42;;;;;;;3.75;0.88;;;22.60;60.70;;;;;;5071127;28;20040;-62
2022/07/29 08:51:08;;;;;;;3.03;0.80;;;22.70;60.80;;;;;;5072546;28;20048;-62
2022/07/29 08:53:33;;;;;;;5.70;0.90;;;22.70;60.80;;;;;;5070793;28;20082;-60
2022/07/29 08:55:59;;;;;;;2.20;0.80;;;22.70;60.80;;;;;;5072183;28;20044;-60
2022/07/29 08:58:25;;;;;;;1.60;0.70;;;22.70;60.90;;;;;;5070563;28;20060;-63
2022/07/29 09:00:55;;;;;;;1.80;0.80;;;22.70;60.90;;;;;;5070785;28;20125;-62
2022/07/29 09:03:24;;;;;;;1.35;0.70;;;22.70;60.90;;;;;;5070977;28;20070;-64
2022/07/29 09:05:50;;;;;;;2.10;0.60;;;22.70;60.90;;;;;;5070295;28;20408;-64
2022/07/29 09:08:17;;;;;;;3.08;0.80;;;22.70;60.80;;;;;;5071151;28;20373;-64
2022/07/29 09:10:43;;;;;;;2.97;0.70;;;22.70;60.80;;;;;;5072190;28;20150;-64
2022/07/29 09:13:08;;;;;;;1.90;0.80;;;22.70;60.70;;;;;;5071993;28;20087;-64
2022/07/29 09:15:34;;;;;;;3.30;0.82;;;22.70;60.60;;;;;;5071956;28;20492;-64
2022/07/29 09:18:00;;;;;;;1.88;0.70;;;22.70;60.50;;;;;;5070888;28;20499;-64
2022/07/29 09:20:26;;;;;;;2.30;0.90;;;22.70;60.40;;;;;;5087146;28;20399;-64
2022/07/29 09:22:53;;;;;;;3.03;0.77;;;22.70;60.40;;;;;;5072366;28;20037;-63
2022/07/29 09:25:38;;;;;;;10.13;1.08;;;22.80;60.40;;;;;;5072257;28;20044;-64
2022/07/29 09:28:11;;;;;;;2.92;0.80;;;22.80;60.60;;;;;;5069685;28;20524;-64
2022/07/29 09:30:58;;;;;;;2.40;0.80;;;22.80;60.50;;;;;;5071926;28;20076;-62
2022/07/29 09:33:24;;;;;;;3.33;0.70;;;22.80;60.40;;;;;;5069189;28;20133;-62
2022/07/29 09:36:03;;;;;;;2.20;0.90;;;22.80;60.40;;;;;;5069772;28;20049;-63
2022/07/29 09:38:29;;;;;;;2.47;0.73;;;22.80;60.50;;;;;;5072081;28;20384;-62
2022/07/29 09:41:02;;;;;;;1.85;0.70;;;22.80;60.40;;;;;;5070151;28;20047;-62
2022/07/29 09:43:27;;;;;;;3.15;0.73;;;22.80;60.50;;;;;;5072538;28;20045;-61
2022/07/29 09:45:53;;;;;;;2.15;0.75;;;22.80;60.50;;;;;;5074454;28;20193;-61
2022/07/29 09:48:23;;;;;;;3.70;0.80;;;22.80;60.50;;;;;;5074055;28;20543;-61
2022/07/29 09:50:49;;;;;;;2.33;0.80;;;22.80;60.60;;;;;;5075982;28;20036;-61
2022/07/29 09:53:34;;;;;;;1.85;0.60;;;22.80;60.60;;;;;;5076030;28;20044;-62
2022/07/29 09:56:00;;;;;;;3.17;0.70;;;22.80;60.60;;;;;;5075158;28;20044;-62
2022/07/29 09:58:25;;;;;;;1.88;0.80;;;22.80;60.60;;;;;;5072986;28;20056;-62
2022/07/29 10:00:52;;;;;;;2.95;0.88;;;22.80;60.70;;;;;;5057965;28;20048;-61
2022/07/29 10:03:18;;;;;;;5.18;0.95;;;22.80;60.60;;;;;;5059244;28;20047;-62
2022/07/29 10:05:43;;;;;;;1.90;0.70;;;22.80;60.70;;;;;;5059941;28;20056;-62
2022/07/29 10:08:10;;;;;;;1.83;0.75;;;22.80;60.70;;;;;;5060099;28;20033;-62
2022/07/29 10:10:39;;;;;;;2.50;0.73;;;22.80;60.70;;;;;;5070001;28;20041;-62
2022/07/29 10:13:09;;;;;;;2.60;1.00;;;22.80;60.80;;;;;;5073955;28;20395;-62
2022/07/29 10:15:44;;;;;;;1.33;0.80;;;22.80;60.80;;;;;;5075625;28;20052;-61
2022/07/29 10:18:10;;;;;;;2.53;0.95;;;22.80;60.80;;;;;;5074859;28;20040;-63
2022/07/29 10:20:36;;;;;;;6.90;1.00;;;22.80;60.90;;;;;;5075796;28;20041;-64
2022/07/29 10:23:02;;;;;;;1.38;0.80;;;22.80;60.90;;;;;;5074581;28;20511;-63
2022/07/29 10:25:28;;;;;;;2.90;0.80;;;22.80;60.90;;;;;;5075509;28;20119;-63
2022/07/29 10:27:54;;;;;;;1.48;0.70;;;22.80;60.80;;;;;;5074883;28;20106;-63
2022/07/29 10:30:23;;;;;;;2.22;0.80;;;22.80;60.90;;;;;;5074823;28;20099;-63
2022/07/29 10:33:02;;;;;;;4.80;0.90;;;22.80;60.80;;;;;;5075088;28;20076;-63
2022/07/29 10:35:58;;;;;;;8.38;2.53;;;22.70;60.90;;;;;;5074032;28;20500;-63
2022/07/29 10:39:01;;;;;;;4.05;1.05;;;22.70;61.30;;;;;;5073600;28;20072;-63
2022/07/29 10:41:48;;;;;;;2.72;1.00;;;22.70;61.20;;;;;;5075489;28;20075;-63
2022/07/29 10:44:21;;;;;;;2.83;0.80;;;22.70;61.00;;;;;;5074225;28;20088;-63
2022/07/29 10:46:47;;;;;;;3.88;1.10;;;22.70;60.90;;;;;;5073456;28;20044;-63
2022/07/29 10:49:16;;;;;;;2.72;0.90;;;22.70;60.80;;;;;;5074948;28;20041;-63
2022/07/29 10:52:05;;;;;;;3.33;0.95;;;22.70;60.70;;;;;;5074159;28;20430;-63
2022/07/29 10:57:21;;;;;;;1.90;0.98;;;22.60;60.50;;;;;;5073915;28;20644;-63
2022/07/29 10:59:49;;;;;;;4.80;1.10;;;22.60;60.50;;;;;;5073980;28;20056;-63
2022/07/29 11:02:35;;;;;;;3.08;0.90;;;22.60;60.50;;;;;;5074921;28;20040;-65
2022/07/29 11:05:08;;;;;;;5.97;1.10;;;22.60;60.40;;;;;;5074144;28;20053;-64
2022/07/29 11:07:34;;;;;;;5.15;1.58;;;22.60;60.50;;;;;;5074213;28;20075;-62
2022/07/29 11:10:15;;;;;;;5.97;1.67;;;22.60;60.50;;;;;;5074126;28;20089;-63
2022/07/29 11:12:40;;;;;;;6.53;1.90;;;22.50;60.60;;;;;;5074051;28;20068;-62
2022/07/29 11:15:21;;;;;;;6.95;1.90;;;22.60;60.80;;;;;;5074035;28;20428;-63
2022/07/29 11:17:56;;;;;;;7.65;1.83;;;22.50;60.80;;;;;;5074159;28;20051;-63
2022/07/29 11:20:47;;;;;;;5.93;1.50;;;22.50;60.90;;;;;;5074034;28;20041;-63
2022/07/29 11:23:31;;;;;;;8.98;1.83;;;22.60;61.00;;;;;;5074569;28;20041;-64
2022/07/29 11:26:12;;;;;;;5.78;1.67;;;22.60;61.00;;;;;;5073982;28;20047;-64
2022/07/29 11:28:50;;;;;;;5.68;1.75;;;22.60;61.10;;;;;;5074515;28;20048;-63
2022/07/29 11:31:32;;;;;;;5.07;1.92;;;22.60;61.20;;;;;;5073022;28;20548;-64
2022/07/29 11:34:15;;;;;;;6.60;1.92;;;22.60;61.20;;;;;;5072720;28;20051;-63
2022/07/29 11:37:07;;;;;;;5.22;1.67;;;22.60;61.10;;;;;;5069920;28;20040;-62
2022/07/29 11:39:34;;;;;;;6.88;2.25;;;22.60;61.20;;;;;;5072695;28;20044;-62
2022/07/29 11:42:24;;;;;;;5.05;1.70;;;22.60;61.20;;;;;;5072916;28;20185;-63
2022/07/29 11:44:57;;;;;;;5.20;1.75;;;22.70;61.40;;;;;;5073610;28;20127;-62
2022/07/29 11:47:23;;;;;;;5.22;1.50;;;22.60;61.40;;;;;;5073052;28;20146;-62
2022/07/29 11:49:50;;;;;;;7.53;1.90;;;22.70;61.50;;;;;;5073355;28;20045;-65
2022/07/29 11:52:16;;;;;;;6.93;1.88;;;22.70;61.60;;;;;;5073765;28;20072;-64
2022/07/29 11:54:42;;;;;;;6.18;1.80;;;22.70;61.50;;;;;;5087378;28;20076;-62
2022/07/29 11:57:08;;;;;;;6.78;1.67;;;22.70;61.60;;;;;;5094232;28;20097;-62
2022/07/29 11:59:41;;;;;;;5.50;1.55;;;22.70;61.60;;;;;;5093637;28;20039;-62
2022/07/29 12:02:07;;;;;;;6.90;2.00;;;22.70;61.70;;;;;;5079917;28;20044;-76
2022/07/29 12:04:32;;;;;;;5.63;2.08;;;22.70;61.80;;;;;;5072147;28;20047;-62
2022/07/29 12:06:58;;;;;;;6.32;2.25;;;22.70;61.70;;;;;;5070884;28;20067;-77
2022/07/29 12:09:23;;;;;;;6.38;1.45;;;22.70;61.60;;;;;;5071397;28;20443;-78
2022/07/29 12:11:49;;;;;;;8.40;1.60;;;22.70;61.60;;;;;;5071678;28;20044;-75
2022/07/29 12:14:31;;;;;;;5.03;1.50;;;22.70;61.60;;;;;;5072005;28;20169;-79
2022/07/29 12:16:57;;;;;;;6.18;1.65;;;22.70;61.60;;;;;;5070179;28;20040;-79
2022/07/29 12:19:23;;;;;;;6.68;1.50;;;22.70;61.60;;;;;;5071469;28;20369;-76
2022/07/29 12:21:53;;;;;;;7.28;1.95;;;22.70;61.50;;;;;;5072648;28;20037;-78
2022/07/29 12:24:19;;;;;;;4.78;1.80;;;22.70;61.60;;;;;;5071931;28;20492;-75
2022/07/29 12:26:56;;;;;;;5.53;1.75;;;22.70;61.60;;;;;;5070758;28;20063;-79
2022/07/29 12:29:22;;;;;;;4.77;1.77;;;22.70;61.60;;;;;;5068616;28;20496;-76
2022/07/29 12:31:53;;;;;;;4.97;1.48;;;22.70;61.60;;;;;;5056005;28;20059;-75
2022/07/29 12:34:19;;;;;;;4.68;1.67;;;22.70;61.60;;;;;;5055454;28;20052;-65
2022/07/29 12:36:45;;;;;;;6.10;1.50;;;22.70;61.60;;;;;;5053828;28;20040;-65
2022/07/29 12:39:11;;;;;;;14.10;1.63;;;22.70;61.70;;;;;;5072056;28;20127;-67
2022/07/29 12:41:36;;;;;;;4.88;1.75;;;22.70;61.70;;;;;;5054709;28;20032;-66
2022/07/29 12:44:02;;;;;;;5.00;1.50;;;22.80;61.70;;;;;;5069862;28;20052;-65
2022/07/29 12:46:28;;;;;;;5.53;1.40;;;22.80;61.80;;;;;;5071959;28;20110;-65
2022/07/29 12:48:58;;;;;;;5.57;1.50;;;22.80;61.80;;;;;;5071768;28;20135;-64
2022/07/29 12:51:33;;;;;;;6.97;1.60;;;22.80;61.90;;;;;;5070291;28;20078;-64
2022/07/29 12:54:17;;;;;;;6.65;1.70;;;22.80;62.00;;;;;;5071681;28;20373;-66
2022/07/29 12:56:43;;;;;;;4.68;1.45;;;22.80;62.20;;;;;;5071763;28;20040;-66
2022/07/29 12:59:19;;;;;;;9.75;2.05;;;22.80;62.20;;;;;;5071994;28;20055;-65
2022/07/29 13:01:49;;;;;;;7.57;1.80;;;22.80;62.50;;;;;;5072606;28;20048;-64